ZGGG

Guangzhou Baiyun International Airport

Guangzhou, China
TAF ZGGG 182100Z 1900/1924 02004MPS 8000 BKN030 TX23/1907Z TN16/1922Z
Issued Valid From Valid To
Nov-18 @ 21:00 UTC
(4 hours ago)
Nov-19 @ 00:00 UTC
(58 minutes ago)
Nov-20 @ 00:00 UTC
(in 23 hours)
Nov-19 @ 00:00 to Nov-20 @ 00:00
TAF ZGGG 182100Z 1900/1924 02004MPS 8000 BKN030 TX23/1907Z TN16/1922Z
Wind Visibility Clouds
20° at 8 knots 7,998 meters
  • Broken at 3,000' AGL
TAF ZGGG 182100Z 1900/1924 02004MPS 8000 BKN030 TX23/1907Z TN16/1922Z
Issued Nov-18 @ 21:00 UTC
(4 hours ago)
Valid From Nov-19 @ 00:00 UTC
(58 minutes ago)
Valid To Nov-20 @ 00:00 UTC
(in 23 hours)
Nov-19 @ 00:00 - Nov-20 @ 00:00
Wind Visibility
20° at 8 knots 7,998 meters
Clouds
  • Broken at 3,000' AGL